Time;durP1;ratioP1;P1;durP2;ratioP2;P2;SDS_P1;SDS_P2;PMS_P1;PMS_P2;Temp;Humidity;BMP_temperature;BMP_pressure;BME280_temperature;BME280_humidity;BME280_pressure;Samples;Min_cycle;Max_cycle;Signal;HPM_P1;HPM_P2
2021/07/29 00:01:40;;;;;;;10.95;5.45;;;;;;;31.02;33.01;101139.16;143722;626;48008;-76
2021/07/29 00:04:08;;;;;;;9.02;4.45;;;;;;;30.98;33.58;101139.81;143725;591;46027;-77
2021/07/29 00:06:35;;;;;;;9.65;5.07;;;;;;;30.95;33.83;101134.91;143725;592;47011;-77
2021/07/29 00:09:03;;;;;;;10.27;4.87;;;;;;;30.92;34.20;101135.56;143728;579;45010;-77
2021/07/29 00:11:30;;;;;;;7.07;5.10;;;;;;;30.89;32.94;101132.63;143726;648;47004;-77
2021/07/29 00:13:59;;;;;;;9.27;5.20;;;;;;;30.94;33.06;101140.78;143721;582;49018;-77
2021/07/29 00:16:28;;;;;;;12.40;5.12;;;;;;;30.90;33.63;101131.47;143702;622;50008;-77
2021/07/29 00:19:05;;;;;;;9.82;5.30;;;;;;;30.90;33.79;101128.72;143724;582;46002;-77
2021/07/29 00:21:37;;;;;;;15.90;9.40;;;;;;;30.84;34.90;101123.31;143725;596;47004;-76
2021/07/29 00:24:05;;;;;;;8.25;5.10;;;;;;;30.76;35.42;101109.47;143726;582;47008;-77
2021/07/29 00:26:32;;;;;;;9.32;5.28;;;;;;;30.74;35.05;101128.37;143718;579;48004;-77
2021/07/29 00:29:02;;;;;;;12.25;5.22;;;;;;;30.70;34.98;101117.97;143726;605;45927;-77
2021/07/29 00:31:31;;;;;;;10.05;5.50;;;;;;;30.70;34.89;101115.19;143726;622;47004;-77
2021/07/29 00:33:58;;;;;;;9.68;5.35;;;;;;;30.70;34.42;101114.38;143725;616;47012;-78
2021/07/29 00:36:25;;;;;;;10.15;5.80;;;;;;;30.73;34.67;101118.44;143723;568;47002;-77
2021/07/29 00:38:53;;;;;;;13.45;6.07;;;;;;;30.72;35.12;101117.63;143724;583;46923;-77
2021/07/29 00:41:20;;;;;;;8.40;6.43;;;;;;;30.72;34.99;101114.03;143728;631;47013;-77
2021/07/29 00:43:47;;;;;;;11.98;5.22;;;;;;;30.72;34.89;101108.47;143727;627;46010;-76
2021/07/29 00:46:15;;;;;;;14.55;5.53;;;;;;;30.74;34.99;101103.44;143723;570;47002;-76
2021/07/29 00:48:43;;;;;;;9.82;6.05;;;;;;;30.76;34.45;101106.69;143727;572;45922;-78
2021/07/29 00:51:11;;;;;;;12.30;5.53;;;;;;;30.78;34.21;101112.72;143716;603;49004;-77
2021/07/29 00:53:38;;;;;;;10.75;5.80;;;;;;;30.76;34.42;101112.25;143725;567;47008;-77
2021/07/29 00:56:06;;;;;;;12.52;5.15;;;;;;;30.76;34.52;101106.69;143720;665;49002;-76
2021/07/29 00:58:32;;;;;;;8.15;5.18;;;;;;;30.78;34.04;101107.19;143728;588;46004;-77
2021/07/29 01:01:00;;;;;;;12.55;5.55;;;;;;;30.77;34.20;101095.28;143724;654;48004;-78
2021/07/29 01:03:27;;;;;;;13.50;5.45;;;;;;;30.79;35.61;101100.50;143723;592;47010;-77
2021/07/29 01:05:54;;;;;;;7.82;5.37;;;;;;;30.75;35.17;101110.59;143723;621;48002;-77
2021/07/29 01:08:21;;;;;;;9.60;5.20;;;;;;;30.69;35.10;101110.78;143724;569;47013;-77
2021/07/29 01:10:48;;;;;;;7.65;5.15;;;;;;;30.68;33.75;101105.56;143725;592;47002;-77
2021/07/29 01:13:15;;;;;;;6.32;5.05;;;;;;;30.70;34.02;101100.50;143723;606;47012;-76
2021/07/29 01:15:43;;;;;;;13.00;5.95;;;;;;;30.70;33.57;101101.34;143724;617;47004;-76
2021/07/29 01:18:10;;;;;;;9.90;5.25;;;;;;;30.66;35.46;101100.34;143726;581;47002;-76
2021/07/29 01:20:37;;;;;;;9.25;5.10;;;;;;;30.63;35.29;101101.00;143727;597;47002;-77
2021/07/29 01:23:04;;;;;;;10.32;5.32;;;;;;;30.61;35.32;101094.97;143725;590;47011;-76
2021/07/29 01:25:31;;;;;;;8.63;5.00;;;;;;;30.60;35.23;101096.09;143725;573;47006;-76
2021/07/29 01:27:58;;;;;;;8.05;4.95;;;;;;;30.55;35.19;101094.31;143725;568;47002;-76
2021/07/29 01:30:25;;;;;;;9.27;6.60;;;;;;;30.54;35.55;101092.66;143727;663;48006;-76
2021/07/29 01:32:52;;;;;;;9.15;5.53;;;;;;;30.50;35.57;101086.12;143726;582;47008;-77
2021/07/29 01:35:19;;;;;;;7.15;5.55;;;;;;;30.46;36.15;101099.00;143726;568;47004;-76
2021/07/29 01:37:46;;;;;;;10.20;4.90;;;;;;;30.43;35.80;101096.06;143722;591;49005;-76
2021/07/29 01:40:14;;;;;;;10.02;5.40;;;;;;;30.42;36.16;101105.53;143729;579;46004;-76
2021/07/29 01:42:41;;;;;;;12.13;5.55;;;;;;;30.41;35.79;101107.50;143725;593;47008;-76
2021/07/29 01:45:09;;;;;;;15.00;5.45;;;;;;;30.42;35.99;101105.53;143724;576;47005;-76
2021/07/29 01:47:36;;;;;;;10.05;5.00;;;;;;;30.41;36.21;101099.19;143726;604;46002;-76
2021/07/29 01:50:04;;;;;;;10.02;5.53;;;;;;;30.42;35.84;101099.97;143725;588;47006;-77
2021/07/29 01:52:36;;;;;;;13.38;6.95;;;;;;;30.44;35.93;101100.47;143722;602;48010;-77
2021/07/29 01:55:04;;;;;;;8.10;5.70;;;;;;;30.40;35.97;101103.88;143724;638;47004;-76
2021/07/29 01:57:31;;;;;;;13.77;5.95;;;;;;;30.40;36.11;101103.88;143718;585;51004;-77
2021/07/29 01:59:58;;;;;;;12.43;7.00;;;;;;;30.39;36.08;101104.22;143726;574;47004;-77
2021/07/29 02:02:26;;;;;;;10.27;6.18;;;;;;;30.38;36.37;101108.13;143724;575;47010;-77
2021/07/29 02:04:53;;;;;;;12.65;5.78;;;;;;;30.36;36.64;101108.44;143724;576;47002;-77
2021/07/29 02:07:20;;;;;;;10.80;6.43;;;;;;;30.35;37.11;101112.38;143725;636;46004;-76
2021/07/29 02:09:48;;;;;;;18.65;7.25;;;;;;;30.32;36.74;101115.78;143725;581;48004;-76
2021/07/29 02:12:15;;;;;;;12.98;7.82;;;;;;;30.30;36.96;101109.75;143724;581;48008;-76
2021/07/29 02:14:42;;;;;;;15.40;7.72;;;;;;;30.28;36.91;101120.34;143724;651;47004;-76
2021/07/29 02:17:09;;;;;;;15.48;8.00;;;;;;;30.25;37.51;101107.97;143725;602;45926;-76
2021/07/29 02:19:37;;;;;;;14.57;7.15;;;;;;;30.21;36.47;101103.38;143728;580;47002;-76
2021/07/29 02:22:04;;;;;;;18.30;7.15;;;;;;;30.21;36.96;101114.44;143725;648;47010;-76
2021/07/29 02:24:31;;;;;;;13.73;7.00;;;;;;;30.20;37.37;101118.34;143723;597;47004;-76
2021/07/29 02:26:59;;;;;;;11.40;6.93;;;;;;;30.19;37.18;101109.25;143724;582;47002;-76
2021/07/29 02:29:26;;;;;;;11.07;6.45;;;;;;;30.17;37.58;101110.72;143726;608;47005;-76
2021/07/29 02:31:53;;;;;;;12.90;6.75;;;;;;;30.16;37.38;101114.63;143717;631;49006;-77
2021/07/29 02:34:21;;;;;;;15.32;6.30;;;;;;;30.18;37.04;101110.38;143725;612;47002;-76
2021/07/29 02:36:49;;;;;;;15.20;6.35;;;;;;;30.16;37.39;101109.88;143723;584;47000;-76
2021/07/29 02:39:17;;;;;;;14.23;7.15;;;;;;;30.16;37.37;101106.31;143726;595;47004;-75
2021/07/29 02:41:44;;;;;;;15.13;6.62;;;;;;;30.18;37.11;101110.38;143721;637;47008;-75
2021/07/29 02:44:12;;;;;;;12.18;7.12;;;;;;;30.18;37.00;101113.16;143725;574;47005;-76
2021/07/29 02:46:40;;;;;;;11.07;6.00;;;;;;;30.13;37.28;101116.06;143722;600;47006;-76
2021/07/29 02:49:07;;;;;;;11.75;6.78;;;;;;;30.09;37.51;101124.22;143727;577;47004;-76
2021/07/29 02:51:34;;;;;;;16.25;7.00;;;;;;;30.07;37.27;101120.16;143724;580;47008;-76
2021/07/29 02:54:02;;;;;;;12.35;7.40;;;;;;;30.00;37.53;101117.03;143724;600;47004;-77
2021/07/29 02:56:29;;;;;;;16.85;7.20;;;;;;;29.98;37.25;101124.81;143726;585;45924;-77
2021/07/29 02:58:56;;;;;;;12.75;5.87;;;;;;;29.95;37.41;101124.34;143727;669;47004;-77
2021/07/29 03:01:23;;;;;;;14.93;6.60;;;;;;;29.95;37.58;101117.97;143726;573;46021;-76
2021/07/29 03:03:50;;;;;;;17.25;6.60;;;;;;;29.93;37.52;101115.50;143725;608;47002;-76
2021/07/29 03:06:17;;;;;;;12.85;6.82;;;;;;;29.93;37.26;101121.03;143718;569;48002;-77
2021/07/29 03:08:44;;;;;;;11.93;6.30;;;;;;;29.93;37.47;101128.53;143727;605;47004;-76
2021/07/29 03:11:12;;;;;;;12.13;6.15;;;;;;;29.91;37.56;101126.09;143724;593;47008;-76
2021/07/29 03:13:39;;;;;;;14.15;6.97;;;;;;;29.93;37.48;101128.53;143725;591;47004;-76
2021/07/29 03:16:06;;;;;;;14.85;7.03;;;;;;;29.92;37.72;101124.13;143718;593;49008;-76
2021/07/29 03:18:33;;;;;;;14.02;6.00;;;;;;;29.89;37.41;101130.31;143724;586;47008;-76
2021/07/29 03:21:01;;;;;;;16.35;6.72;;;;;;;29.89;37.63;101136.69;143723;700;47010;-75
2021/07/29 03:23:28;;;;;;;18.87;6.12;;;;;;;29.87;38.12;101125.09;143723;595;47006;-76
2021/07/29 03:25:55;;;;;;;12.05;6.20;;;;;;;29.85;37.74;101129.31;143723;585;45926;-76
2021/07/29 03:28:22;;;;;;;12.02;6.78;;;;;;;29.87;37.91;101129.81;143728;697;47002;-76
2021/07/29 03:30:48;;;;;;;10.65;6.72;;;;;;;29.87;37.67;101124.28;143723;584;47011;-76
2021/07/29 03:33:16;;;;;;;23.25;6.60;;;;;;;29.87;37.55;101132.56;143725;617;47004;-77
2021/07/29 03:35:43;;;;;;;16.65;7.05;;;;;;;29.87;37.94;101132.56;143724;591;46006;-77
2021/07/29 03:38:10;;;;;;;16.42;6.82;;;;;;;29.86;38.06;101125.41;143726;576;47004;-77
2021/07/29 03:40:38;;;;;;;23.02;7.12;;;;;;;29.86;38.09;101126.25;143722;610;49010;-76
2021/07/29 03:43:07;;;;;;;18.80;7.32;;;;;;;29.84;38.33;101127.69;143723;611;47005;-77
2021/07/29 03:45:36;;;;;;;14.52;7.47;;;;;;;29.82;38.26;101121.66;143724;573;46006;-77
2021/07/29 03:48:04;;;;;;;19.05;7.85;;;;;;;29.83;38.26;101118.56;143726;572;47002;-76
2021/07/29 03:50:31;;;;;;;25.52;7.57;;;;;;;29.83;38.17;101121.34;143725;601;47010;-76
2021/07/29 03:52:59;;;;;;;29.67;8.15;;;;;;;29.85;38.36;101119.06;143724;574;47004;-77
2021/07/29 03:55:26;;;;;;;24.67;7.07;;;;;;;29.80;37.97;101119.19;143726;618;45922;-77
2021/07/29 03:57:53;;;;;;;20.42;6.93;;;;;;;29.80;38.63;101114.50;143728;577;46006;-77
2021/07/29 04:00:20;;;;;;;23.20;7.43;;;;;;;29.84;38.20;101113.84;143725;628;47008;-76
2021/07/29 04:02:47;;;;;;;19.48;7.37;;;;;;;29.83;38.28;101112.22;143722;592;47006;-76
2021/07/29 04:05:14;;;;;;;21.92;6.93;;;;;;;29.83;37.88;101115.81;143726;580;45924;-77
2021/07/29 04:07:41;;;;;;;14.55;6.75;;;;;;;29.85;37.60;101116.31;143726;578;47004;-76
2021/07/29 04:10:08;;;;;;;35.20;9.20;;;;;;;29.86;38.35;101126.25;143724;572;47010;-77
2021/07/29 04:12:35;;;;;;;25.12;7.37;;;;;;;29.85;37.86;101124.59;143719;584;47008;-77
2021/07/29 04:15:03;;;;;;;24.12;7.43;;;;;;;29.84;38.17;101125.75;143724;573;46002;-76
2021/07/29 04:17:30;;;;;;;14.68;7.45;;;;;;;29.88;37.26;101123.97;143725;575;47008;-76
2021/07/29 04:19:59;;;;;;;22.87;7.20;;;;;;;29.97;38.36;101131.50;143721;591;47010;-77
2021/07/29 04:22:29;;;;;;;17.50;7.28;;;;;;;29.96;38.29;101130.69;143722;591;47015;-77
2021/07/29 04:24:57;;;;;;;16.73;6.65;;;;;;;30.00;38.41;101128.09;143725;695;45925;-77
2021/07/29 04:27:24;;;;;;;17.08;6.50;;;;;;;29.99;38.32;101121.75;143724;602;47004;-77
2021/07/29 04:29:52;;;;;;;24.83;7.60;;;;;;;30.03;38.58;101127.47;143723;593;47012;-76
2021/07/29 04:32:22;;;;;;;16.35;7.30;;;;;;;30.03;38.19;101131.03;143724;605;47002;-77
2021/07/29 04:34:50;;;;;;;21.30;6.72;;;;;;;30.09;37.97;101124.22;143727;608;45922;-76
2021/07/29 04:37:17;;;;;;;26.73;7.40;;;;;;;30.15;37.64;101135.16;143725;637;47004;-76
2021/07/29 04:39:44;;;;;;;21.98;7.47;;;;;;;30.20;37.74;101134.97;143721;568;47008;-77
2021/07/29 04:42:12;;;;;;;23.60;7.87;;;;;;;30.28;36.97;101134.19;143718;623;47004;-76
2021/07/29 04:44:39;;;;;;;15.43;6.60;;;;;;;30.34;36.43;101129.31;143725;591;45922;-76
2021/07/29 04:47:07;;;;;;;19.67;6.62;;;;;;;30.39;36.84;101131.94;143722;586;48002;-77
2021/07/29 04:49:34;;;;;;;15.63;6.50;;;;;;;30.42;37.03;101133.22;143716;720;47010;-77
2021/07/29 04:52:01;;;;;;;22.98;6.93;;;;;;;30.45;37.14;101133.38;143720;609;48002;-77
2021/07/29 04:54:29;;;;;;;12.75;6.22;;;;;;;30.49;38.01;101136.34;143721;574;46002;-76
2021/07/29 04:56:56;;;;;;;16.33;6.53;;;;;;;30.53;37.60;101131.78;143724;621;47012;-76
2021/07/29 04:59:23;;;;;;;13.65;6.82;;;;;;;30.57;38.63;101134.75;143720;617;47012;-76
2021/07/29 05:01:50;;;;;;;19.60;6.75;;;;;;;30.60;38.16;101140.47;143721;674;48002;-76
2021/07/29 05:04:18;;;;;;;16.85;6.65;;;;;;;30.62;38.31;101135.41;143723;583;45923;-76
2021/07/29 05:06:45;;;;;;;25.35;7.78;;;;;;;30.66;37.96;101132.78;143725;586;48004;-76
2021/07/29 05:09:13;;;;;;;20.70;6.43;;;;;;;30.69;38.49;101141.28;143723;574;47008;-76
2021/07/29 05:11:40;;;;;;;17.87;7.18;;;;;;;30.75;38.87;101141.09;143722;627;47004;-76
2021/07/29 05:14:07;;;;;;;24.35;7.12;;;;;;;30.81;39.05;101134.25;143715;577;48004;-76
2021/07/29 05:16:35;;;;;;;19.02;6.72;;;;;;;30.85;39.42;101135.25;143720;574;48006;-77
2021/07/29 05:19:02;;;;;;;20.60;6.85;;;;;;;30.92;38.85;101135.56;143721;668;47010;-77
2021/07/29 05:21:29;;;;;;;16.02;7.05;;;;;;;30.97;38.80;101142.91;143722;579;47006;-76
2021/07/29 05:23:57;;;;;;;20.48;6.82;;;;;;;31.02;39.56;101141.91;143724;574;45923;-76
2021/07/29 05:26:24;;;;;;;17.73;6.70;;;;;;;31.08;38.77;101135.88;143727;582;47014;-77
2021/07/29 05:28:51;;;;;;;25.35;6.90;;;;;;;31.15;39.55;101138.16;143725;567;47012;-77
2021/07/29 05:31:18;;;;;;;22.40;7.68;;;;;;;31.20;38.37;101145.50;143723;603;46012;-77
2021/07/29 05:33:45;;;;;;;14.70;5.95;;;;;;;31.25;37.69;101148.91;143725;614;45922;-77
2021/07/29 05:36:12;;;;;;;20.50;6.50;;;;;;;31.32;36.73;101148.44;143727;587;47004;-76
2021/07/29 05:38:39;;;;;;;19.27;6.62;;;;;;;31.38;35.66;101154.63;143719;588;47008;-77
2021/07/29 05:41:09;;;;;;;23.50;7.43;;;;;;;31.43;35.01;101148.87;143725;625;47004;-76
2021/07/29 05:43:40;;;;;;;18.42;6.37;;;;;;;31.45;35.51;101150.19;143724;581;45922;-76
2021/07/29 05:46:11;;;;;;;17.23;6.47;;;;;;;31.51;35.80;101148.03;143726;606;47006;-76
2021/07/29 05:48:39;;;;;;;26.40;6.95;;;;;;;31.54;35.17;101146.56;143723;604;47010;-76
2021/07/29 05:51:07;;;;;;;14.00;6.37;;;;;;;31.59;35.25;101155.50;143713;592;50004;-76
2021/07/29 05:53:34;;;;;;;14.70;6.53;;;;;;;31.64;35.24;101148.16;143723;576;45923;-76
2021/07/29 05:56:01;;;;;;;21.20;7.22;;;;;;;31.70;34.87;101149.59;143724;572;48004;-76
2021/07/29 05:58:28;;;;;;;19.20;7.37;;;;;;;31.70;34.48;101146.84;143718;592;47010;-76
2021/07/29 06:00:55;;;;;;;18.83;7.20;;;;;;;31.77;34.47;101146.34;143724;588;47002;-76
2021/07/29 06:03:23;;;;;;;17.17;6.55;;;;;;;31.80;34.02;101143.69;143719;567;46008;-76
2021/07/29 06:05:51;;;;;;;19.20;7.10;;;;;;;31.86;33.91;101147.12;143725;670;48004;-76
2021/07/29 06:08:18;;;;;;;15.55;6.75;;;;;;;31.89;33.85;101158.38;143717;572;50010;-76
2021/07/29 06:10:46;;;;;;;17.17;6.70;;;;;;;31.93;33.50;101146.59;143717;605;47013;-76
2021/07/29 06:13:13;;;;;;;18.90;7.60;;;;;;;31.99;33.54;101151.63;143723;768;45927;-76
2021/07/29 06:15:41;;;;;;;17.70;6.93;;;;;;;32.03;32.94;101147.03;143725;656;47002;-77
2021/07/29 06:18:11;;;;;;;15.07;7.28;;;;;;;32.04;33.30;101143.09;143724;596;46006;-76
2021/07/29 06:20:38;;;;;;;17.65;7.07;;;;;;;32.13;32.66;101147.78;143718;573;47011;-76
2021/07/29 06:23:05;;;;;;;15.40;7.28;;;;;;;32.15;32.71;101142.72;143720;633;46006;-77
2021/07/29 06:25:32;;;;;;;15.23;6.78;;;;;;;32.21;32.14;101147.75;143718;617;47011;-76
2021/07/29 06:28:00;;;;;;;21.52;7.78;;;;;;;32.27;32.50;101147.59;143719;569;47012;-77
2021/07/29 06:30:30;;;;;;;13.20;6.70;;;;;;;32.35;31.92;101149.47;143723;583;47006;-77
2021/07/29 06:32:58;;;;;;;14.87;7.28;;;;;;;32.41;32.19;101148.13;143724;677;45924;-77
2021/07/29 06:35:26;;;;;;;21.12;7.28;;;;;;;32.44;31.78;101141.91;143725;609;47000;-76
2021/07/29 06:37:54;;;;;;;21.17;7.53;;;;;;;32.52;31.51;101143.00;143726;577;47010;-77
2021/07/29 06:40:21;;;;;;;17.55;8.85;;;;;;;32.59;31.78;101132.13;143722;597;47004;-77
2021/07/29 06:42:48;;;;;;;18.42;7.97;;;;;;;32.64;31.14;101134.72;143724;608;45925;-77
2021/07/29 06:45:16;;;;;;;18.02;7.47;;;;;;;32.70;31.01;101140.88;143720;586;48002;-76
2021/07/29 06:47:43;;;;;;;20.50;7.47;;;;;;;32.76;31.31;101144.25;143719;587;47010;-77
2021/07/29 06:50:11;;;;;;;18.52;7.53;;;;;;;32.82;30.91;101142.13;143720;644;47006;-77
2021/07/29 06:52:38;;;;;;;16.35;6.28;;;;;;;32.87;30.65;101141.91;143720;632;46006;-76
2021/07/29 06:55:06;;;;;;;18.15;7.22;;;;;;;32.89;30.50;101134.84;143714;667;47004;-76
2021/07/29 06:57:33;;;;;;;14.25;6.97;;;;;;;32.98;30.19;101136.72;143725;570;47011;-76
2021/07/29 07:00:01;;;;;;;13.07;9.55;;;;;;;33.04;30.30;101130.59;143721;577;47002;-76
2021/07/29 07:02:28;;;;;;;22.05;11.48;;;;;;;33.09;29.77;101133.19;143723;588;47008;-77
2021/07/29 07:04:55;;;;;;;21.90;12.02;;;;;;;33.17;29.59;101133.44;143720;567;47002;-77
2021/07/29 07:07:22;;;;;;;20.95;8.73;;;;;;;33.19;30.82;101125.53;143719;574;46013;-76
2021/07/29 07:09:49;;;;;;;14.40;8.15;;;;;;;33.23;30.68;101130.09;143721;585;47004;-77
2021/07/29 07:12:16;;;;;;;15.25;7.00;;;;;;;33.29;30.46;101130.69;143724;569;45926;-77
2021/07/29 07:14:43;;;;;;;15.40;7.87;;;;;;;33.33;30.27;101128.00;143723;572;47006;-76
2021/07/29 07:17:11;;;;;;;18.62;6.65;;;;;;;33.38;29.81;101130.62;143717;572;48012;-77
2021/07/29 07:19:38;;;;;;;16.70;7.90;;;;;;;33.46;29.96;101124.13;143724;573;47002;-77
2021/07/29 07:22:06;;;;;;;17.70;7.75;;;;;;;33.51;29.21;101121.13;143718;616;50002;-77
2021/07/29 07:24:36;;;;;;;16.95;7.22;;;;;;;33.58;29.63;101116.97;143727;646;47004;-77
2021/07/29 07:27:06;;;;;;;23.60;7.97;;;;;;;33.61;29.78;101131.00;143718;574;48012;-77
2021/07/29 07:29:36;;;;;;;27.10;7.15;;;;;;;33.63;30.89;101130.62;143718;568;47002;-77
2021/07/29 07:32:04;;;;;;;21.30;8.00;;;;;;;33.60;31.69;101121.00;143725;577;45922;-77
2021/07/29 07:34:31;;;;;;;20.40;8.38;;;;;;;33.66;30.50;101128.00;143723;581;48004;-78
2021/07/29 07:36:59;;;;;;;14.10;7.93;;;;;;;33.66;31.05;101129.94;143718;592;47008;-77
2021/07/29 07:39:26;;;;;;;20.95;7.72;;;;;;;33.74;31.26;101123.47;143721;567;47004;-78
2021/07/29 07:41:56;;;;;;;15.73;7.12;;;;;;;33.76;30.94;101125.88;143722;595;46004;-77
2021/07/29 07:44:23;;;;;;;13.13;7.12;;;;;;;33.76;30.68;101117.53;143723;621;48002;-77
2021/07/29 07:46:50;;;;;;;16.00;7.35;;;;;;;33.76;31.26;101121.16;143724;631;47010;-77
2021/07/29 07:49:17;;;;;;;14.95;7.22;;;;;;;33.82;30.17;101116.94;143724;577;47002;-78
2021/07/29 07:51:45;;;;;;;15.77;7.70;;;;;;;33.92;30.33;101126.84;143725;579;45923;-77
2021/07/29 07:54:13;;;;;;;17.80;7.70;;;;;;;33.97;31.54;101126.62;143727;587;47009;-76
2021/07/29 07:56:43;;;;;;;19.83;7.43;;;;;;;34.04;31.80;101123.25;143723;637;47012;-76
2021/07/29 07:59:10;;;;;;;18.58;7.50;;;;;;;34.15;32.30;101118.78;143725;573;47002;-77
2021/07/29 08:01:41;;;;;;;13.30;7.00;;;;;;;34.19;33.58;101120.88;143724;620;47002;-77
2021/07/29 08:04:08;;;;;;;9.75;6.65;;;;;;;34.27;33.61;101119.97;143727;587;47005;-76
2021/07/29 08:06:36;;;;;;;22.37;7.65;;;;;;;34.29;32.85;101123.22;143720;600;46011;-76
2021/07/29 08:09:04;;;;;;;15.18;7.25;;;;;;;34.36;33.79;101123.41;143724;623;47004;-77
2021/07/29 08:11:31;;;;;;;14.87;6.90;;;;;;;34.46;34.67;101122.13;143724;616;45923;-77
2021/07/29 08:13:59;;;;;;;14.32;6.43;;;;;;;34.51;33.24;101123.88;143725;705;47004;-77
2021/07/29 08:16:26;;;;;;;15.70;7.07;;;;;;;34.59;31.01;101117.34;143725;660;48008;-77
2021/07/29 08:18:55;;;;;;;16.90;6.18;;;;;;;34.71;32.16;101116.47;143725;635;47019;-76
2021/07/29 08:21:22;;;;;;;14.52;6.35;;;;;;;34.79;30.54;101123.88;143725;603;46006;-76
2021/07/29 08:23:49;;;;;;;16.27;5.95;;;;;;;34.82;29.66;101127.94;143727;583;47002;-76
2021/07/29 08:26:16;;;;;;;11.35;5.80;;;;;;;34.87;29.89;101110.94;143725;577;47010;-76
2021/07/29 08:28:44;;;;;;;10.05;6.05;;;;;;;34.99;29.23;101119.28;143724;638;47007;-76
2021/07/29 08:31:13;;;;;;;15.43;6.72;;;;;;;35.06;30.82;101111.09;143719;574;46018;-77
2021/07/29 08:33:41;;;;;;;13.18;5.97;;;;;;;35.12;30.95;101116.41;143722;604;49004;-77
2021/07/29 08:36:19;;;;;;;15.77;5.55;;;;;;;35.17;28.59;101108.59;143717;575;47014;-78
2021/07/29 08:38:48;;;;;;;13.00;5.75;;;;;;;35.21;29.86;101112.28;143724;567;47004;-77
2021/07/29 08:41:19;;;;;;;7.65;5.43;;;;;;;35.24;29.69;101101.59;143724;599;46006;-76
2021/07/29 08:43:47;;;;;;;12.55;5.20;;;;;;;35.28;29.09;101113.66;143728;629;47002;-76
2021/07/29 08:46:20;;;;;;;11.60;6.00;;;;;;;35.30;28.06;101108.53;143725;684;47008;-75
2021/07/29 08:48:48;;;;;;;;;;;;;;;35.38;27.97;101106.72;143729;974;47004;-75
2021/07/29 08:51:20;;;;;;;12.35;5.85;;;;;;;35.39;28.28;101099.97;143731;645;45937;-75
2021/07/29 08:53:48;;;;;;;9.50;5.50;;;;;;;35.53;29.93;101100.34;143729;567;46016;-75
2021/07/29 08:56:18;;;;;;;21.48;7.15;;;;;;;35.58;29.89;101104.84;143718;617;47009;-76
2021/07/29 08:58:46;;;;;;;12.65;5.50;;;;;;;35.60;28.60;101103.31;143724;582;47006;-76
2021/07/29 09:01:13;;;;;;;14.65;5.37;;;;;;;35.66;30.41;101101.03;143721;596;47002;-75
2021/07/29 09:03:41;;;;;;;9.10;5.72;;;;;;;35.72;28.28;101105.19;143729;589;47002;-76
2021/07/29 09:06:13;;;;;;;11.10;5.62;;;;;;;35.69;27.68;101103.12;143722;605;48002;-76
2021/07/29 09:08:53;;;;;;;8.33;5.13;;;;;;;35.73;28.03;101100.44;143727;567;47004;-76
2021/07/29 09:11:46;;;;;;;11.05;5.50;;;;;;;35.88;29.78;101094.00;143725;570;46006;-76
2021/07/29 09:14:18;;;;;;;20.45;6.37;;;;;;;35.96;28.85;101098.59;143728;602;47002;-75
2021/07/29 09:17:01;;;;;;;11.70;5.32;;;;;;;35.90;28.80;101091.66;143719;590;47008;-76
2021/07/29 09:19:53;;;;;;;9.43;5.65;;;;;;;36.08;28.81;101091.28;143721;611;49006;-76
2021/07/29 09:22:30;;;;;;;16.05;5.87;;;;;;;36.22;28.34;101093.56;143720;627;46004;-76
2021/07/29 09:25:07;;;;;;;21.00;6.20;;;;;;;36.30;28.48;101098.13;143724;725;49002;-76
2021/07/29 09:27:45;;;;;;;11.90;5.35;;;;;;;36.34;26.85;101092.62;143721;602;48925;-74
2021/07/29 09:30:42;;;;;;;12.15;5.70;;;;;;;36.45;29.25;101092.88;143721;617;50010;-76
2021/07/29 09:33:13;;;;;;;9.20;5.55;;;;;;;36.46;29.65;101092.50;143726;588;46004;-76
2021/07/29 09:35:49;;;;;;;12.02;5.70;;;;;;;36.43;29.53;101093.22;143726;596;47002;-76
2021/07/29 09:38:33;;;;;;;15.30;5.53;;;;;;;36.47;29.72;101096.91;143720;568;47015;-77
2021/07/29 09:41:05;;;;;;;12.65;6.10;;;;;;;36.61;29.23;101093.59;143721;568;48004;-77
2021/07/29 09:43:42;;;;;;;11.57;6.15;;;;;;;36.65;29.87;101090.87;143725;641;46006;-76
2021/07/29 09:46:22;;;;;;;12.98;5.78;;;;;;;36.63;29.54;101094.03;143722;582;47008;-78
2021/07/29 09:48:50;;;;;;;13.45;6.20;;;;;;;36.70;29.15;101088.59;143719;591;47012;-77
2021/07/29 09:51:17;;;;;;;10.25;5.62;;;;;;;36.80;29.08;101106.75;143723;591;48002;-77
2021/07/29 09:53:45;;;;;;;8.95;5.60;;;;;;;36.92;29.29;101093.78;143725;584;46004;-76
2021/07/29 09:56:13;;;;;;;14.15;6.47;;;;;;;36.98;28.21;101098.75;143722;573;49004;-76
2021/07/29 09:58:43;;;;;;;15.43;5.97;;;;;;;36.98;28.46;101100.72;143723;586;47011;-76
2021/07/29 10:01:15;;;;;;;11.02;5.47;;;;;;;37.03;28.26;101096.81;143720;568;48004;-76
2021/07/29 10:03:47;;;;;;;14.75;6.07;;;;;;;37.14;28.13;101095.84;143726;612;46002;-76
2021/07/29 10:06:19;;;;;;;9.75;5.50;;;;;;;37.14;28.46;101093.03;143724;567;48002;-77
2021/07/29 10:08:57;;;;;;;10.70;5.45;;;;;;;37.14;27.44;101095.84;143726;794;47010;-77
2021/07/29 10:11:32;;;;;;;13.13;6.03;;;;;;;37.25;27.83;101081.19;143717;582;48007;-77
2021/07/29 10:13:59;;;;;;;11.45;5.90;;;;;;;37.20;27.78;101085.13;143720;742;46922;-77
2021/07/29 10:16:48;;;;;;;11.98;5.70;;;;;;;37.25;28.33;101084.78;143728;572;47002;-77
2021/07/29 10:19:17;;;;;;;15.63;7.15;;;;;;;37.31;27.17;101077.72;143725;568;48011;-77
2021/07/29 10:21:44;;;;;;;15.57;8.55;;;;;;;37.30;27.81;101076.09;143724;622;47004;-77
2021/07/29 10:58:56;;;;;;;12.15;6.12;;;;;;;37.68;27.32;101022.25;143718;764;48010;-77
2021/07/29 11:01:42;;;;;;;20.40;7.05;;;;;;;37.75;27.25;101022.38;143720;606;46017;-78
2021/07/29 11:04:09;;;;;;;14.87;5.90;;;;;;;37.76;26.85;101015.56;143721;652;47004;-77
2021/07/29 11:06:40;;;;;;;12.13;6.18;;;;;;;37.80;27.05;101015.63;143722;605;47010;-67
2021/07/29 11:09:16;;;;;;;9.35;6.03;;;;;;;37.83;26.57;101010.03;143717;637;47004;-67
2021/07/29 11:11:44;;;;;;;13.55;5.75;;;;;;;37.87;26.52;101007.28;143718;620;47009;-66
2021/07/29 11:14:11;;;;;;;8.60;5.20;;;;;;;37.86;26.62;101012.09;143719;885;46006;-66
2021/07/29 11:16:38;;;;;;;12.98;5.68;;;;;;;37.79;26.64;101000.78;143719;604;47012;-66
2021/07/29 11:19:06;;;;;;;10.48;5.87;;;;;;;37.72;26.37;101006.31;143715;572;47926;-67
2021/07/29 11:21:33;;;;;;;14.60;6.18;;;;;;;37.77;26.45;101003.97;143721;634;46006;-67
2021/07/29 11:24:00;;;;;;;11.00;5.60;;;;;;;37.77;26.26;101003.97;143722;768;47000;-67
2021/07/29 11:26:42;;;;;;;10.13;5.72;;;;;;;37.78;26.89;101001.97;143718;755;47010;-67
2021/07/29 11:29:10;;;;;;;9.98;4.70;;;;;;;37.75;26.61;100995.12;143716;598;47006;-67
2021/07/29 11:31:40;;;;;;;18.27;5.65;;;;;;;37.79;26.20;100991.56;143713;635;47004;-67
2021/07/29 11:40:26;;;;;;;15.73;5.75;;;;;;;37.68;27.37;100997.03;143716;833;47009;-65
2021/07/29 11:42:54;;;;;;;12.25;5.70;;;;;;;37.69;27.61;100984.62;143718;601;47008;-66
2021/07/29 11:45:34;;;;;;;10.13;5.82;;;;;;;37.75;28.16;100971.91;143718;605;47006;-65
2021/07/29 11:48:01;;;;;;;18.60;5.75;;;;;;;37.70;28.49;100986.25;143719;822;46010;-65
2021/07/29 11:50:38;;;;;;;10.55;5.20;;;;;;;37.69;28.34;100979.81;143717;586;47006;-66
2021/07/29 11:53:05;;;;;;;16.98;5.50;;;;;;;37.69;28.46;100970.62;143719;811;46006;-66
2021/07/29 11:55:32;;;;;;;9.93;5.57;;;;;;;37.68;28.57;100972.63;143717;633;47006;-67
2021/07/29 11:58:13;;;;;;;15.10;6.45;;;;;;;37.64;27.61;100971.75;143721;644;46012;-66
2021/07/29 12:00:40;;;;;;;10.05;5.93;;;;;;;37.62;27.66;100976.94;143719;779;47004;-66
2021/07/29 12:03:06;;;;;;;14.65;5.90;;;;;;;37.63;27.39;100961.75;143717;579;47011;-67
2021/07/29 12:05:39;;;;;;;16.90;5.90;;;;;;;37.67;27.39;100971.00;143720;576;47004;-66
2021/07/29 12:08:06;;;;;;;10.48;5.47;;;;;;;37.73;27.31;100960.28;143717;614;46008;-66